Time;durP1;ratioP1;P1;durP2;ratioP2;P2;SDS_P1;SDS_P2;PMS_P1;PMS_P2;Temp;Humidity;BMP_temperature;BMP_pressure;BME280_temperature;BME280_humidity;BME280_pressure;Samples;Min_cycle;Max_cycle;Signal;HPM_P1;HPM_P2
2021/05/11 00:01:47;;;;;;;7.97;4.87;;;11.60;99.90;;;;;;4206726;28;20047;-60
2021/05/11 00:03:48;;;;;;;11.03;5.80;;;11.60;99.90;;;;;;4208132;28;20105;-63
2021/05/11 00:05:49;;;;;;;9.93;5.43;;;11.60;99.90;;;;;;4208256;28;20040;-62
2021/05/11 00:07:51;;;;;;;11.80;5.63;;;11.60;99.90;;;;;;4207964;28;20040;-61
2021/05/11 00:09:52;;;;;;;9.57;4.70;;;11.50;99.90;;;;;;4208151;28;20052;-61
2021/05/11 00:11:53;;;;;;;8.90;5.17;;;11.40;99.90;;;;;;4208151;28;20494;-61
2021/05/11 00:13:54;;;;;;;9.97;4.87;;;11.40;99.90;;;;;;4208080;28;20027;-61
2021/05/11 00:15:56;;;;;;;10.93;6.20;;;11.40;99.90;;;;;;4207710;28;20121;-68
2021/05/11 00:17:57;;;;;;;10.77;5.40;;;11.30;99.90;;;;;;4207824;28;20144;-61
2021/05/11 00:19:59;;;;;;;11.20;5.70;;;11.20;99.90;;;;;;4207865;28;20052;-61
2021/05/11 00:22:01;;;;;;;10.00;4.87;;;11.10;99.90;;;;;;4207802;28;20065;-61
2021/05/11 00:24:02;;;;;;;8.30;5.13;;;11.10;99.90;;;;;;4208069;28;20047;-58
2021/05/11 00:26:04;;;;;;;10.07;5.13;;;11.10;99.90;;;;;;4207722;28;20040;-61
2021/05/11 00:28:05;;;;;;;13.50;5.33;;;11.00;99.90;;;;;;4208289;28;20030;-62
2021/05/11 00:30:06;;;;;;;9.00;4.67;;;11.10;99.90;;;;;;4208425;28;20048;-61
2021/05/11 00:32:07;;;;;;;8.27;5.13;;;11.00;99.90;;;;;;4208001;28;20040;-66
2021/05/11 00:34:09;;;;;;;9.97;5.33;;;11.00;99.90;;;;;;4208012;28;20040;-62
2021/05/11 00:36:10;;;;;;;7.50;4.67;;;10.90;99.90;;;;;;4207442;28;20109;-60
2021/05/11 00:38:11;;;;;;;10.10;5.53;;;10.90;99.90;;;;;;4207356;28;20061;-62
2021/05/11 00:40:13;;;;;;;7.60;4.83;;;10.80;99.90;;;;;;4207418;28;20032;-61
2021/05/11 00:42:14;;;;;;;11.67;5.10;;;10.80;99.90;;;;;;4207753;28;20105;-61
2021/05/11 00:44:23;;;;;;;10.80;5.63;;;10.80;99.90;;;;;;4208105;28;20089;-62
2021/05/11 00:46:26;;;;;;;9.53;5.70;;;10.70;99.90;;;;;;4207292;28;20032;-67
2021/05/11 00:48:27;;;;;;;11.33;6.80;;;10.60;99.90;;;;;;4206636;28;20031;-58
2021/05/11 00:50:28;;;;;;;12.83;6.93;;;10.50;99.90;;;;;;4207511;28;20373;-60
2021/05/11 00:52:30;;;;;;;10.37;6.10;;;10.50;99.90;;;;;;4205590;28;20085;-61
2021/05/11 00:54:31;;;;;;;11.50;6.93;;;10.50;99.90;;;;;;4207810;28;20040;-61
2021/05/11 00:56:32;;;;;;;11.20;6.20;;;10.50;99.90;;;;;;4206757;28;20430;-67
2021/05/11 00:58:34;;;;;;;15.13;6.17;;;10.40;99.90;;;;;;4207409;28;20073;-61
2021/05/11 01:00:35;;;;;;;10.83;5.70;;;10.40;99.90;;;;;;4207075;28;20089;-60
2021/05/11 01:02:37;;;;;;;9.57;5.57;;;10.40;99.90;;;;;;4207009;28;20479;-61
2021/05/11 01:04:38;;;;;;;8.07;6.50;;;10.40;99.90;;;;;;4207391;28;20148;-61
2021/05/11 01:06:40;;;;;;;7.07;5.23;;;10.40;99.90;;;;;;4207005;28;20073;-61
2021/05/11 01:08:41;;;;;;;14.73;6.23;;;10.30;99.90;;;;;;4205617;28;20035;-61
2021/05/11 01:10:42;;;;;;;15.87;5.57;;;10.30;99.90;;;;;;4206968;28;20515;-61
2021/05/11 01:12:43;;;;;;;9.13;5.47;;;10.30;99.90;;;;;;4206690;28;20085;-60
2021/05/11 01:14:46;;;;;;;10.57;5.20;;;10.20;99.90;;;;;;4206520;28;20442;-69
2021/05/11 01:16:54;;;;;;;7.33;4.63;;;10.20;99.90;;;;;;4206917;28;20445;-62
2021/05/11 01:18:59;;;;;;;6.53;4.40;;;10.10;99.90;;;;;;4206527;28;20461;-71
2021/05/11 01:21:16;;;;;;;7.80;4.53;;;10.10;99.90;;;;;;4206746;28;20031;-68
2021/05/11 01:25:26;;;;;;;7.00;3.93;;;10.00;99.90;;;;;;4206825;28;20043;-66
2021/05/11 01:27:42;;;;;;;7.43;4.33;;;10.00;99.90;;;;;;4206311;28;20024;-68
2021/05/11 01:29:58;;;;;;;11.07;4.70;;;10.00;99.90;;;;;;4206038;28;20093;-58
2021/05/11 01:50:13;;;;;;;10.83;5.00;;;10.00;99.90;;;;;;4206406;28;20047;-61
2021/05/11 01:54:48;;;;;;;8.93;4.65;;;10.00;99.90;;;;;;4206762;28;20089;-60
2021/05/11 02:24:36;;;;;;;7.77;4.00;;;9.30;99.90;;;;;;4187060;28;20170;-68
2021/05/11 02:26:37;;;;;;;9.60;4.47;;;9.20;99.90;;;;;;4186008;28;20040;-63
2021/05/11 02:28:38;;;;;;;8.03;4.40;;;9.10;99.90;;;;;;4186409;28;20040;-70
2021/05/11 02:30:39;;;;;;;7.43;5.00;;;9.00;99.90;;;;;;4204736;28;20093;-61
2021/05/11 02:32:42;;;;;;;7.17;4.93;;;9.00;99.90;;;;;;4206065;28;21045;-63
2021/05/11 02:34:43;;;;;;;7.60;5.27;;;8.90;99.90;;;;;;4205880;28;20040;-62
2021/05/11 02:36:44;;;;;;;6.70;4.90;;;8.90;99.90;;;;;;4205125;28;20121;-62
2021/05/11 02:38:45;;;;;;;6.13;4.43;;;8.80;99.90;;;;;;4206209;28;20070;-64
2021/05/11 02:40:47;;;;;;;9.60;4.43;;;8.90;99.90;;;;;;4204874;28;20450;-61
2021/05/11 02:42:51;;;;;;;7.00;4.60;;;8.90;99.90;;;;;;4205610;28;20044;-65
2021/05/11 02:44:54;;;;;;;9.33;4.60;;;8.90;99.90;;;;;;4205350;28;20438;-60
2021/05/11 02:46:56;;;;;;;8.43;4.97;;;8.90;99.90;;;;;;4205522;28;20023;-61
2021/05/11 02:48:58;;;;;;;6.63;4.83;;;8.80;99.90;;;;;;4205661;28;20487;-63
2021/05/11 02:50:59;;;;;;;10.47;5.27;;;8.80;99.90;;;;;;4205337;28;20081;-61
2021/05/11 02:53:03;;;;;;;7.77;5.07;;;8.70;99.90;;;;;;4205363;28;20031;-61
2021/05/11 02:55:04;;;;;;;8.13;5.20;;;8.70;99.90;;;;;;4205998;28;20097;-60
2021/05/11 02:57:06;;;;;;;8.27;5.23;;;8.70;99.90;;;;;;4205060;28;20036;-64
2021/05/11 02:59:07;;;;;;;7.73;5.40;;;8.70;99.90;;;;;;4205669;28;20081;-62
2021/05/11 03:01:08;;;;;;;12.23;5.50;;;8.80;99.90;;;;;;4205317;28;20135;-68
2021/05/11 03:03:09;;;;;;;17.70;9.03;;;8.80;99.90;;;;;;4205402;28;20475;-64
2021/05/11 03:05:11;;;;;;;18.33;7.10;;;8.90;99.90;;;;;;4205337;28;20715;-64
2021/05/11 03:07:12;;;;;;;12.30;5.77;;;9.00;99.90;;;;;;4205271;28;20675;-68
2021/05/11 03:09:14;;;;;;;14.77;5.83;;;9.20;99.90;;;;;;4205462;28;20028;-68
2021/05/11 03:11:15;;;;;;;12.53;5.40;;;9.40;99.90;;;;;;4204746;28;20468;-64
2021/05/11 03:13:16;;;;;;;14.30;5.53;;;9.70;99.90;;;;;;4204609;28;20024;-63
2021/05/11 03:15:18;;;;;;;20.27;5.70;;;9.90;99.90;;;;;;4204958;28;20032;-60
2021/05/11 03:17:19;;;;;;;19.43;7.50;;;10.10;99.90;;;;;;4204839;28;20040;-60
2021/05/11 03:19:20;;;;;;;11.73;5.43;;;10.20;99.90;;;;;;4205415;28;20822;-65
2021/05/11 03:21:21;;;;;;;14.47;6.13;;;10.20;99.90;;;;;;4205526;28;20044;-61
2021/05/11 03:23:39;;;;;;;13.47;5.27;;;10.40;99.90;;;;;;4205450;28;20077;-61
2021/05/11 03:25:40;;;;;;;11.33;5.80;;;10.50;99.90;;;;;;4205130;28;20024;-60
2021/05/11 03:27:41;;;;;;;10.50;5.20;;;10.70;99.90;;;;;;4205194;28;20032;-60
2021/05/11 03:29:43;;;;;;;15.67;5.43;;;11.00;99.90;;;;;;4204872;28;20078;-61
2021/05/11 03:31:44;;;;;;;9.70;5.63;;;11.40;99.90;;;;;;4204866;28;20105;-60
2021/05/11 03:33:45;;;;;;;12.10;5.43;;;11.70;99.90;;;;;;4205358;28;20044;-60
2021/05/11 03:35:47;;;;;;;9.87;4.60;;;12.00;99.90;;;;;;4205740;28;20565;-63
2021/05/11 03:37:48;;;;;;;9.63;4.87;;;12.40;99.90;;;;;;4204591;28;20101;-61
2021/05/11 03:39:49;;;;;;;11.93;4.53;;;12.70;99.90;;;;;;4204597;28;20073;-61
2021/05/11 03:41:54;;;;;;;8.57;5.00;;;13.10;99.90;;;;;;4204847;28;20505;-61
2021/05/11 03:44:01;;;;;;;13.93;4.90;;;13.50;99.90;;;;;;4205024;28;20028;-61
2021/05/11 03:46:07;;;;;;;8.97;4.23;;;14.00;99.90;;;;;;4205056;28;20528;-67
2021/05/11 03:48:09;;;;;;;9.43;4.30;;;14.40;99.90;;;;;;4204658;28;20363;-71
2021/05/11 03:50:15;;;;;;;9.03;4.43;;;14.60;99.90;;;;;;4204845;28;20077;-67
2021/05/11 03:52:16;;;;;;;10.77;4.47;;;14.80;99.90;;;;;;4204858;28;20031;-66
2021/05/11 03:54:18;;;;;;;11.23;4.20;;;15.10;99.90;;;;;;4204950;28;20028;-70
2021/05/11 03:56:19;;;;;;;13.80;4.80;;;15.40;99.90;;;;;;4204715;28;20036;-65
2021/05/11 03:58:20;;;;;;;9.30;4.53;;;15.90;99.90;;;;;;4205630;28;20093;-64
2021/05/11 04:00:21;;;;;;;9.30;4.40;;;16.40;99.90;;;;;;4206784;28;20454;-62
2021/05/11 04:02:22;;;;;;;14.23;4.03;;;16.80;99.90;;;;;;4207902;28;20048;-61
2021/05/11 04:04:24;;;;;;;11.13;4.93;;;17.00;99.80;;;;;;4208103;28;20561;-63
2021/05/11 04:06:25;;;;;;;10.87;4.43;;;17.00;99.50;;;;;;4207523;28;20052;-61
2021/05/11 04:08:43;;;;;;;14.65;4.60;;;17.40;98.90;;;;;;4207624;28;20073;-62
2021/05/11 04:10:48;;;;;;;20.67;5.38;;;17.40;97.90;;;;;;4207558;28;20543;-62
2021/05/11 04:13:10;;;;;;;12.20;5.18;;;17.60;97.20;;;;;;4207530;28;20047;-61
2021/05/11 04:17:32;;;;;;;16.90;5.25;;;18.60;94.70;;;;;;4205893;28;20124;-61
2021/05/11 04:19:34;;;;;;;11.00;4.78;;;19.20;93.10;;;;;;4207235;28;20032;-60
2021/05/11 04:21:36;;;;;;;9.52;4.90;;;19.50;91.30;;;;;;4205383;28;20081;-58
2021/05/11 04:23:37;;;;;;;14.73;4.30;;;19.70;90.10;;;;;;4206641;28;20085;-61
2021/05/11 04:25:39;;;;;;;9.55;4.13;;;20.00;88.20;;;;;;4207292;28;20065;-61
2021/05/11 04:27:40;;;;;;;10.95;4.70;;;20.10;86.10;;;;;;4207602;28;20036;-61
2021/05/11 04:29:41;;;;;;;11.57;4.35;;;19.90;85.00;;;;;;4206476;28;20066;-61
2021/05/11 04:31:42;;;;;;;21.40;5.63;;;19.90;85.10;;;;;;4206901;28;20517;-61
2021/05/11 04:33:44;;;;;;;14.80;4.13;;;19.70;84.90;;;;;;4206346;28;20040;-61
2021/05/11 04:35:45;;;;;;;20.60;4.65;;;19.70;84.60;;;;;;4206370;28;20093;-63
2021/05/11 04:37:46;;;;;;;19.08;4.93;;;19.90;84.20;;;;;;4206508;28;20531;-62
2021/05/11 04:39:47;;;;;;;20.25;5.10;;;20.30;82.10;;;;;;4207131;28;20024;-63
2021/05/11 04:41:48;;;;;;;14.27;4.90;;;20.10;80.80;;;;;;4205967;28;20272;-63
2021/05/11 04:43:49;;;;;;;20.70;5.72;;;19.90;81.10;;;;;;4206497;28;20078;-63
2021/05/11 04:46:02;;;;;;;15.95;5.18;;;19.70;81.70;;;;;;4206563;28;20039;-67
2021/05/11 04:48:04;;;;;;;15.07;5.07;;;20.10;81.30;;;;;;4206765;28;20022;-62
2021/05/11 04:50:05;;;;;;;17.83;5.20;;;20.40;79.30;;;;;;4206683;28;20032;-62
2021/05/11 04:52:07;;;;;;;18.98;6.00;;;20.30;79.00;;;;;;4206083;28;20031;-65
2021/05/11 04:54:10;;;;;;;20.73;6.07;;;20.30;78.70;;;;;;4207052;28;20073;-72
2021/05/11 04:56:11;;;;;;;32.03;6.40;;;20.50;78.40;;;;;;4206072;28;20103;-72
2021/05/11 04:58:12;;;;;;;37.78;6.28;;;20.60;77.20;;;;;;4206155;28;20092;-65
2021/05/11 05:00:15;;;;;;;46.67;6.55;;;20.10;77.40;;;;;;4206611;28;20487;-65
2021/05/11 05:02:16;;;;;;;31.58;6.03;;;20.00;78.10;;;;;;4206719;28;20040;-62
2021/05/11 05:04:18;;;;;;;28.63;6.43;;;19.90;77.90;;;;;;4206392;28;20032;-61
2021/05/11 05:06:21;;;;;;;31.20;6.70;;;20.00;78.00;;;;;;4206285;28;20027;-60
2021/05/11 05:08:22;;;;;;;27.17;6.68;;;20.00;77.60;;;;;;4206598;28;20118;-74
2021/05/11 05:10:23;;;;;;;16.23;6.07;;;20.10;77.00;;;;;;4205373;28;20028;-60
2021/05/11 05:12:25;;;;;;;35.08;7.07;;;20.10;76.70;;;;;;4205967;28;20040;-63
2021/05/11 05:14:26;;;;;;;23.30;7.63;;;20.30;76.20;;;;;;4206488;28;20078;-61
2021/05/11 05:16:28;;;;;;;24.77;7.63;;;20.10;75.90;;;;;;4205895;28;20040;-61
2021/05/11 05:18:30;;;;;;;30.98;7.25;;;19.80;76.10;;;;;;4205703;28;20032;-72
2021/05/11 05:20:31;;;;;;;30.52;7.05;;;19.60;76.80;;;;;;4206067;28;20460;-61
2021/05/11 05:22:32;;;;;;;27.15;7.78;;;20.10;76.10;;;;;;4206090;28;20028;-63
2021/05/11 05:24:37;;;;;;;17.60;8.18;;;20.20;75.20;;;;;;4206412;28;20085;-62
2021/05/11 05:26:39;;;;;;;23.75;8.32;;;20.30;74.70;;;;;;4204964;28;20139;-61
2021/05/11 05:28:41;;;;;;;16.02;6.90;;;20.20;75.20;;;;;;4206336;28;20394;-62
2021/05/11 05:30:43;;;;;;;18.42;7.40;;;19.70;76.50;;;;;;4205916;28;20472;-63
2021/05/11 05:32:44;;;;;;;21.27;7.50;;;19.90;76.90;;;;;;4205879;28;20040;-61
2021/05/11 05:34:45;;;;;;;21.27;7.15;;;20.10;76.30;;;;;;4206228;28;20053;-61
2021/05/11 05:36:46;;;;;;;19.33;6.60;;;20.00;76.20;;;;;;4206169;28;20643;-61
2021/05/11 05:38:48;;;;;;;19.02;5.50;;;19.70;76.60;;;;;;4206240;28;20093;-62
2021/05/11 05:40:56;;;;;;;16.25;5.68;;;19.70;76.70;;;;;;4206029;28;20085;-61
2021/05/11 05:42:57;;;;;;;20.92;6.28;;;20.30;75.60;;;;;;4205800;28;20044;-62
2021/05/11 05:44:58;;;;;;;13.50;5.70;;;20.60;73.90;;;;;;4205987;28;20383;-62
2021/05/11 05:46:59;;;;;;;15.85;6.43;;;20.60;73.40;;;;;;4205766;28;20024;-67
2021/05/11 05:49:00;;;;;;;17.05;6.38;;;20.40;73.20;;;;;;4206639;28;20085;-73
2021/05/11 05:51:03;;;;;;;10.00;5.53;;;19.80;74.50;;;;;;4205560;28;20085;-70
2021/05/11 05:53:11;;;;;;;11.43;5.93;;;19.10;76.30;;;;;;4206007;28;20028;-63
2021/05/11 05:55:12;;;;;;;12.13;5.90;;;19.20;76.80;;;;;;4205862;28;20093;-62
2021/05/11 05:57:15;;;;;;;25.00;10.85;;;19.60;76.30;;;;;;4205848;28;20491;-62
2021/05/11 05:59:16;;;;;;;30.55;10.82;;;19.70;75.10;;;;;;4205476;28;20068;-62
2021/05/11 06:01:17;;;;;;;25.05;11.30;;;19.50;76.00;;;;;;4205946;28;20085;-62
2021/05/11 06:03:38;;;;;;;21.65;15.23;;;19.40;76.50;;;;;;4205421;28;20096;-62
2021/05/11 06:05:39;;;;;;;13.63;8.00;;;19.00;78.20;;;;;;4205811;28;20040;-61
2021/05/11 06:07:41;;;;;;;14.45;11.13;;;18.70;78.90;;;;;;4205863;28;20439;-62
2021/05/11 06:09:42;;;;;;;19.20;11.65;;;18.50;80.10;;;;;;4205796;28;20426;-62
2021/05/11 06:12:09;;;;;;;12.23;9.05;;;18.20;82.10;;;;;;4205958;28;20035;-62
2021/05/11 06:14:12;;;;;;;20.27;10.07;;;18.40;82.40;;;;;;4205522;28;20398;-65
2021/05/11 06:18:33;;;;;;;12.07;7.32;;;18.50;82.50;;;;;;4205522;28;20869;-62
2021/05/11 06:20:34;;;;;;;12.93;7.68;;;18.80;81.80;;;;;;4205140;28;20093;-62
2021/05/11 06:22:35;;;;;;;10.55;5.30;;;18.80;81.00;;;;;;4206030;28;20040;-74
2021/05/11 06:24:37;;;;;;;14.10;9.00;;;19.00;80.70;;;;;;4205555;28;20024;-61
2021/05/11 06:26:38;;;;;;;10.77;5.10;;;19.00;80.20;;;;;;4205695;28;20032;-62
2021/05/11 06:28:42;;;;;;;7.38;4.03;;;19.30;79.70;;;;;;4205694;28;20058;-61
2021/05/11 06:30:43;;;;;;;8.50;4.85;;;19.20;79.80;;;;;;4205401;28;20037;-61
2021/05/11 06:32:44;;;;;;;8.10;4.15;;;19.20;79.70;;;;;;4205529;28;20040;-61
2021/05/11 06:34:54;;;;;;;6.60;3.40;;;19.10;79.60;;;;;;4205466;28;20040;-62
2021/05/11 06:36:55;;;;;;;5.55;3.03;;;19.00;79.40;;;;;;4205262;28;20422;-62
2021/05/11 06:38:57;;;;;;;7.43;3.85;;;18.90;77.60;;;;;;4204948;28;20044;-61
2021/05/11 06:40:59;;;;;;;11.98;5.13;;;19.10;77.70;;;;;;4204764;28;20031;-62
2021/05/11 06:43:01;;;;;;;8.90;3.80;;;19.20;77.80;;;;;;4204515;28;20081;-66
2021/05/11 06:47:29;;;;;;;8.15;4.30;;;19.40;77.90;;;;;;4205308;28;20043;-62
2021/05/11 06:49:38;;;;;;;9.07;4.03;;;19.50;77.70;;;;;;4203846;28;20074;-61
2021/05/11 06:53:51;;;;;;;7.63;5.35;;;19.10;80.90;;;;;;4204037;28;20024;-62
2021/05/11 06:55:52;;;;;;;16.13;4.70;;;19.10;81.90;;;;;;4205170;28;20451;-62
2021/05/11 06:57:54;;;;;;;11.95;5.00;;;19.00;82.70;;;;;;4204535;28;20044;-62
2021/05/11 06:59:55;;;;;;;11.07;5.10;;;19.20;83.30;;;;;;4204857;28;20553;-62
2021/05/11 07:01:56;;;;;;;9.57;5.20;;;19.00;83.80;;;;;;4205224;28;20040;-62
2021/05/11 07:03:58;;;;;;;11.60;4.93;;;18.80;85.60;;;;;;4205322;28;20040;-62
2021/05/11 07:06:00;;;;;;;9.45;5.35;;;18.90;86.30;;;;;;4204809;28;20032;-61
2021/05/11 07:08:12;;;;;;;12.63;5.20;;;18.80;87.40;;;;;;4203677;28;20094;-62
2021/05/11 07:10:21;;;;;;;9.77;5.40;;;18.80;88.70;;;;;;4204837;28;20544;-61
2021/05/11 07:14:41;;;;;;;10.73;5.38;;;18.90;90.00;;;;;;4205399;28;20092;-63
2021/05/11 07:16:42;;;;;;;11.35;5.32;;;18.90;90.40;;;;;;4204923;28;20036;-62
2021/05/11 07:18:45;;;;;;;15.18;5.75;;;18.80;91.10;;;;;;4204525;28;20442;-63
2021/05/11 07:20:48;;;;;;;14.30;5.63;;;18.70;91.80;;;;;;4203154;28;20121;-61
2021/05/11 07:22:49;;;;;;;12.23;6.28;;;18.60;92.50;;;;;;4205090;28;20036;-61
2021/05/11 07:24:53;;;;;;;10.15;5.72;;;18.70;92.80;;;;;;4205282;28;20065;-61
2021/05/11 07:27:14;;;;;;;13.38;6.95;;;19.10;92.70;;;;;;4205118;28;20036;-62
2021/05/11 07:31:17;;;;;;;10.65;5.05;;;19.30;92.60;;;;;;4204593;28;20081;-61
2021/05/11 07:33:19;;;;;;;10.43;5.85;;;19.40;92.80;;;;;;4206135;28;20041;-61
2021/05/11 07:35:21;;;;;;;16.63;8.77;;;19.50;93.20;;;;;;4207983;28;20089;-61
2021/05/11 07:37:22;;;;;;;10.30;5.53;;;19.40;93.20;;;;;;4208066;28;20040;-61
2021/05/11 07:39:24;;;;;;;8.85;5.57;;;19.60;93.20;;;;;;4208070;28;20093;-61
2021/05/11 07:41:25;;;;;;;11.20;5.75;;;19.70;93.00;;;;;;4207332;28;20028;-61
2021/05/11 07:43:28;;;;;;;11.68;5.75;;;19.80;93.10;;;;;;4207382;28;20196;-62
2021/05/11 08:14:58;;;;;;;8.35;4.68;;;21.30;89.00;;;;;;4207236;28;20040;-75
2021/05/11 08:16:57;;;;;;;11.35;5.10;;;21.40;87.40;;;;;;4206928;28;20173;-62
2021/05/11 08:27:26;;;;;;;6.13;3.33;;;21.60;84.10;;;;;;4207432;28;20533;-68
2021/05/11 08:28:15;;;;;;;9.75;2.47;;;21.70;81.20;;;;;;4207497;28;20101;-60
2021/05/11 08:30:16;;;;;;;3.85;2.50;;;22.00;81.10;;;;;;4206935;28;20085;-72
2021/05/11 08:32:18;;;;;;;5.65;2.47;;;22.10;79.30;;;;;;4207062;28;20521;-61
2021/05/11 08:34:19;;;;;;;5.97;2.70;;;22.20;78.30;;;;;;4206959;28;20772;-62
2021/05/11 08:36:20;;;;;;;5.18;3.03;;;22.20;77.30;;;;;;4206840;28;20020;-61
2021/05/11 08:38:21;;;;;;;7.00;3.08;;;22.40;76.80;;;;;;4206808;28;21020;-61
2021/05/11 08:40:23;;;;;;;9.48;2.90;;;22.60;76.10;;;;;;4206494;28;20036;-61
2021/05/11 08:42:25;;;;;;;5.93;2.80;;;22.70;75.30;;;;;;4206623;28;20032;-61
2021/05/11 08:44:26;;;;;;;6.10;2.45;;;22.70;74.20;;;;;;4206310;28;20031;-62
2021/05/11 08:46:27;;;;;;;7.35;2.65;;;22.60;73.90;;;;;;4206768;28;21043;-62
2021/05/11 08:48:29;;;;;;;5.93;2.45;;;22.50;74.20;;;;;;4206617;28;20065;-64
2021/05/11 08:50:35;;;;;;;6.55;3.13;;;22.50;74.40;;;;;;4206787;28;20085;-63
2021/05/11 09:06:40;;;;;;;15.25;3.92;;;23.00;72.70;;;;;;4206075;28;20056;-62
2021/05/11 09:24:56;;;;;;;4.82;2.00;;;23.00;71.50;;;;;;4206553;28;20043;-62
2021/05/11 09:27:01;;;;;;;10.68;2.33;;;23.10;70.30;;;;;;4206101;28;20097;-66
2021/05/11 09:29:09;;;;;;;5.07;2.35;;;23.40;68.50;;;;;;4205845;28;20093;-60
2021/05/11 09:33:50;;;;;;;3.97;2.20;;;23.60;66.30;;;;;;4206219;28;20105;-60
2021/05/11 09:55:09;;;;;;;5.90;1.77;;;24.20;60.70;;;;;;4206377;28;20032;-61
2021/05/11 09:57:29;;;;;;;5.90;1.85;;;24.30;60.60;;;;;;4204671;28;20093;-61
2021/05/11 10:44:23;;;;;;;1.63;0.80;;;;;;;;;;4205351;28;20036;-65
2021/05/11 10:48:40;;;;;;;2.67;1.00;;;;;;;;;;4205126;28;20389;-73
2021/05/11 10:50:45;;;;;;;3.78;0.90;;;;;;;;;;4205433;28;20081;-67
2021/05/11 10:52:48;;;;;;;3.22;1.15;;;;;;;;;;4204104;28;20101;-71
2021/05/11 10:55:24;;;;;;;3.90;0.60;;;;;;;;;;4205113;28;20032;-66
2021/05/11 10:57:30;;;;;;;2.33;0.60;;;;;;;;;;4204912;28;20043;-64
2021/05/11 10:59:42;;;;;;;3.08;0.95;;;;;;;;;;4204003;28;20101;-70
2021/05/11 11:01:49;;;;;;;0.80;0.77;;;;;;;;;;4205269;28;20066;-64
2021/05/11 11:04:10;;;;;;;2.20;0.75;;;;;;;;;;4204864;28;20538;-62
2021/05/11 11:06:11;;;;;;;;;;;;;;;;;;4204857;28;20024;-62
2021/05/11 11:08:42;;;;;;;2.30;0.65;;;;;;;;;;4205846;28;19908;-61
2021/05/11 11:10:44;;;;;;;2.30;1.00;;;;;;;;;;4203431;28;20044;-62
2021/05/11 11:12:45;;;;;;;2.08;0.80;;;;;;;;;;4207645;28;20020;-62
2021/05/11 11:14:46;;;;;;;1.88;0.60;;;;;;;;;;4207032;28;20048;-61
2021/05/11 11:16:49;;;;;;;2.33;0.75;;;;;;;;;;4208136;28;20043;-67
2021/05/11 11:18:50;;;;;;;5.90;1.33;;;;;;;;;;4208393;28;20055;-69
2021/05/11 11:21:07;;;;;;;4.88;0.65;;;;;;;;;;4207999;28;20485;-75
2021/05/11 11:25:28;;;;;;;1.35;0.60;;;;;;;;;;4208357;28;20036;-73
2021/05/11 11:27:31;;;;;;;5.15;0.95;;;;;;;;;;4208123;28;20465;-66
2021/05/11 11:29:33;;;;;;;2.45;0.93;;;;;;;;;;4208141;28;20028;-73
2021/05/11 11:31:44;;;;;;;2.35;0.52;;;;;;;;;;4206723;28;20908;-70
2021/05/11 11:33:46;;;;;;;1.98;0.90;;;;;;;;;;4207988;28;20522;-61
2021/05/11 11:35:47;;;;;;;1.83;0.70;;;;;;;;;;4208124;28;20097;-62
2021/05/11 11:37:50;;;;;;;4.97;0.65;;;;;;;;;;4207717;28;20058;-60
2021/05/11 11:39:53;;;;;;;2.60;1.00;;;;;;;;;;4207874;28;20040;-61
2021/05/11 11:41:55;;;;;;;1.75;0.77;;;;;;;;;;4206190;28;20044;-66
2021/05/11 11:43:57;;;;;;;2.20;0.77;;;;;;;;;;4207697;28;20031;-65
2021/05/11 11:45:58;;;;;;;3.08;0.80;;;;;;;;;;4207200;28;20054;-63
2021/05/11 11:48:03;;;;;;;1.23;0.70;;;;;;;;;;4207151;28;20027;-72
2021/05/11 11:50:05;;;;;;;2.58;0.73;;;;;;;;;;4207673;28;20058;-71
2021/05/11 11:52:16;;;;;;;2.15;0.47;;;;;;;;;;4207916;28;20032;-63
2021/05/11 11:54:24;;;;;;;;;;;;;;;;;;4208192;28;20082;-68
2021/05/11 11:57:43;;;;;;;1.40;0.40;;;;;;;;;;4206790;28;19932;-68
2021/05/11 11:59:03;;;;;;;4.47;0.82;;;;;;;;;;4206908;28;20051;-72
2021/05/11 12:01:17;;;;;;;4.22;0.60;;;;;;;;;;4207735;28;20036;-70
2021/05/11 12:03:22;;;;;;;4.78;0.70;;;;;;;;;;4207863;28;20093;-62
2021/05/11 12:05:24;;;;;;;0.95;0.60;;;;;;;;;;4208046;28;20826;-62
2021/05/11 12:07:34;;;;;;;0.95;0.60;;;;;;;;;;4207244;28;20044;-63
2021/05/11 12:09:35;;;;;;;1.50;0.50;;;;;;;;;;4208013;28;20553;-62
2021/05/11 12:11:36;;;;;;;4.03;0.85;;;;;;;;;;4207114;28;20446;-63
2021/05/11 12:13:40;;;;;;;2.25;0.90;;;;;;;;;;4207619;28;20032;-62
2021/05/11 12:15:41;;;;;;;2.35;0.60;;;;;;;;;;4207686;28;20036;-61
2021/05/11 12:17:46;;;;;;;4.78;1.10;;;;;;;;;;4207442;28;20173;-69
2021/05/11 12:19:47;;;;;;;4.22;1.45;;;;;;;;;;4206867;28;20089;-70
2021/05/11 12:21:50;;;;;;;6.18;1.10;;;;;;;;;;4207714;28;20089;-61
2021/05/11 12:24:02;;;;;;;3.92;1.00;;;;;;;;;;4207616;28;20040;-69
2021/05/11 12:26:05;;;;;;;1.67;0.50;;;;;;;;;;4207564;28;20031;-64
2021/05/11 12:28:06;;;;;;;1.45;0.40;;;;;;;;;;4207212;28;20540;-64
2021/05/11 12:30:08;;;;;;;2.05;0.82;;;;;;;;;;4207352;28;20040;-64
2021/05/11 12:32:21;;;;;;;5.72;1.55;;;;;;;;;;4206987;28;20074;-63
2021/05/11 12:34:24;;;;;;;1.70;0.50;;;;;;;;;;4205509;28;20917;-70
2021/05/11 12:36:27;;;;;;;1.67;0.88;;;;;;;;;;4207002;28;20529;-61
2021/05/11 12:38:30;;;;;;;1.20;0.63;;;;;;;;;;4207031;28;20026;-62
2021/05/11 12:40:49;;;;;;;3.72;0.63;;;;;;;;;;4206804;28;20048;-60
2021/05/11 12:42:50;;;;;;;1.20;0.55;;;;;;;;;;4206103;28;20032;-61
2021/05/11 12:45:06;;;;;;;1.60;0.52;;;;;;;;;;4207279;28;20044;-60
2021/05/11 12:47:09;;;;;;;4.85;0.50;;;;;;;;;;4207111;28;20035;-63
2021/05/11 12:49:21;;;;;;;1.27;0.70;;;;;;;;;;4206783;28;20036;-66
2021/05/11 12:51:26;;;;;;;7.65;0.98;;;;;;;;;;4206873;28;20031;-61
2021/05/11 12:53:37;;;;;;;3.30;0.43;;;;;;;;;;4206917;28;20031;-70
2021/05/11 12:58:09;;;;;;;3.17;0.65;;;;;;;;;;4206304;28;20081;-63
2021/05/11 13:00:15;;;;;;;2.85;0.30;;;;;;;;;;4206382;28;20089;-66
2021/05/11 13:09:26;;;;;;;;;;;;;;;;;;4206852;28;20036;-62
2021/05/11 13:30:00;;;;;;;5.47;0.70;;;;;;;;;;4205544;28;20081;-62
2021/05/11 13:31:42;;;;;;;5.00;0.63;;;;;;;;;;4201666;28;20028;-66
2021/05/11 13:33:54;;;;;;;1.65;0.70;;;;;;;;;;4205403;28;20101;-62
2021/05/11 13:35:56;;;;;;;2.58;0.60;;;;;;;;;;4205892;28;20036;-61
2021/05/11 13:37:57;;;;;;;1.40;0.50;;;;;;;;;;4206350;28;20077;-61
2021/05/11 13:40:00;;;;;;;2.13;0.50;;;;;;;;;;4205634;28;20053;-62
2021/05/11 13:42:02;;;;;;;6.63;0.60;;;;;;;;;;4205459;28;20074;-61
2021/05/11 13:44:04;;;;;;;1.10;0.52;;;;;;;;;;4205469;28;20020;-61
2021/05/11 13:46:05;;;;;;;2.20;0.65;;;;;;;;;;4205860;28;20145;-60
2021/05/11 13:50:12;;;;;;;10.73;1.65;;;;;;;;;;4205625;28;20468;-61
2021/05/11 13:52:14;;;;;;;3.42;0.57;;;;;;;;;;4205612;28;20036;-64
2021/05/11 13:54:17;;;;;;;4.00;0.77;;;;;;;;;;4205511;28;20471;-67
2021/05/11 14:03:04;;;;;;;2.17;0.60;;;;;;;;;;4205560;28;20036;-61
2021/05/11 14:05:06;;;;;;;3.95;0.80;;;;;;;;;;4205637;28;20036;-71
2021/05/11 14:07:08;;;;;;;1.17;0.73;;;;;;;;;;4204932;28;20043;-60
2021/05/11 14:09:10;;;;;;;1.67;0.45;;;;;;;;;;4205065;28;20108;-61
2021/05/11 14:11:11;;;;;;;1.45;0.60;;;;;;;;;;4205409;28;20073;-60
2021/05/11 14:13:12;;;;;;;1.10;0.77;;;;;;;;;;4205305;28;20093;-62
2021/05/11 14:15:14;;;;;;;3.88;0.60;;;;;;;;;;4204945;28;20073;-63
2021/05/11 14:17:16;;;;;;;0.82;0.60;;;;;;;;;;4205184;28;20078;-62
2021/05/11 14:19:18;;;;;;;4.00;0.77;;;;;;;;;;4205457;28;20081;-63
2021/05/11 14:21:20;;;;;;;2.67;0.95;;;;;;;;;;4204994;28;20020;-71
2021/05/11 14:23:22;;;;;;;1.48;0.60;;;;;;;;;;4205286;28;20093;-74
2021/05/11 14:25:23;;;;;;;3.63;0.50;;;;;;;;;;4205276;28;20074;-66
2021/05/11 14:27:25;;;;;;;9.70;0.88;;;;;;;;;;4205062;28;20081;-69
2021/05/11 14:29:26;;;;;;;7.95;1.02;;;;;;;;;;4205673;28;20563;-67
2021/05/11 14:31:28;;;;;;;4.18;0.65;;;;;;;;;;4204836;28;20863;-61
2021/05/11 14:33:29;;;;;;;4.18;0.80;;;;;;;;;;4205190;28;20027;-62
2021/05/11 14:35:30;;;;;;;3.17;0.40;;;;;;;;;;4204988;28;20032;-61
2021/05/11 14:37:32;;;;;;;1.15;0.52;;;;;;;;;;4204578;28;20119;-63
2021/05/11 14:39:33;;;;;;;1.30;0.52;;;;;;;;;;4205107;28;20086;-61
2021/05/11 14:41:35;;;;;;;2.88;0.70;;;;;;;;;;4204560;28;21285;-61
2021/05/11 14:43:38;;;;;;;0.82;0.60;;;;;;;;;;4205056;28;20460;-62
2021/05/11 14:45:39;;;;;;;2.15;0.45;;;;;;;;;;4205485;28;20085;-62
2021/05/11 14:47:47;;;;;;;4.63;0.60;;;;;;;;;;4204745;28;20040;-61
2021/05/11 14:49:49;;;;;;;4.40;0.60;;;;;;;;;;4204640;28;20028;-61
2021/05/11 14:51:50;;;;;;;5.90;0.73;;;;;;;;;;4204766;28;20032;-61
2021/05/11 14:53:51;;;;;;;2.55;0.70;;;;;;;;;;4205377;28;20044;-62
2021/05/11 14:55:53;;;;;;;6.00;0.50;;;;;;;;;;4205467;28;20106;-62
2021/05/11 14:57:55;;;;;;;4.30;0.80;;;;;;;;;;4205523;28;20040;-73
2021/05/11 14:59:56;;;;;;;3.33;0.70;;;;;;;;;;4205020;28;20028;-62
2021/05/11 15:01:57;;;;;;;5.82;0.80;;;;;;;;;;4204723;28;20496;-62
2021/05/11 15:04:00;;;;;;;2.85;0.60;;;;;;;;;;4204955;28;20422;-61
2021/05/11 15:06:01;;;;;;;2.17;0.50;;;;;;;;;;4205103;28;20040;-61
2021/05/11 15:08:03;;;;;;;7.00;0.85;;;;;;;;;;4204719;28;20056;-61
2021/05/11 15:10:05;;;;;;;5.28;0.73;;;;;;;;;;4205924;28;20549;-63